createdAt,value
2022-10-30T00:01:25.254Z,11.65
2022-10-30T00:03:53.904Z,17.13
2022-10-30T00:06:22.392Z,13.40
2022-10-30T00:08:50.852Z,8.00
2022-10-30T00:11:19.576Z,8.70
2022-10-30T00:14:06.888Z,7.88
2022-10-30T00:16:41.049Z,13.65
2022-10-30T00:19:20.413Z,12.45
2022-10-30T00:21:48.908Z,10.35
2022-10-30T00:24:17.682Z,11.00
2022-10-30T00:26:46.176Z,11.73
2022-10-30T00:29:16.332Z,13.65
2022-10-30T00:31:46.195Z,10.27
2022-10-30T00:34:14.730Z,8.98
2022-10-30T00:36:43.600Z,8.98
2022-10-30T00:39:12.469Z,8.82
2022-10-30T00:41:42.090Z,10.95
2022-10-30T00:44:37.800Z,9.18
2022-10-30T00:47:08.524Z,11.15
2022-10-30T00:49:39.604Z,10.07
2022-10-30T00:52:11.395Z,12.30
2022-10-30T00:54:40.006Z,7.72
2022-10-30T00:57:10.892Z,9.05
2022-10-30T00:59:42.532Z,19.38
2022-10-30T01:02:11.165Z,17.83
2022-10-30T01:04:41.140Z,25.73
2022-10-30T01:07:14.001Z,19.33
2022-10-30T01:09:43.465Z,13.80
2022-10-30T01:12:12.011Z,11.77
2022-10-30T01:14:45.929Z,13.82
2022-10-30T01:17:35.389Z,24.58
2022-10-30T01:20:19.288Z,13.80
2022-10-30T01:23:00.262Z,15.82
2022-10-30T01:25:50.467Z,22.35
2022-10-30T01:28:36.619Z,11.40
2022-10-30T01:31:18.403Z,14.43
2022-10-30T01:34:00.723Z,14.32
2022-10-30T01:36:37.952Z,13.75
2022-10-30T01:39:12.312Z,16.45
2022-10-30T01:41:41.078Z,8.55
2022-10-30T01:44:15.100Z,10.63
2022-10-30T01:47:01.376Z,8.63
2022-10-30T01:49:54.122Z,10.57
2022-10-30T01:52:33.898Z,8.07
2022-10-30T01:55:09.547Z,11.90
2022-10-30T01:57:45.261Z,10.25
2022-10-30T02:00:16.763Z,7.55
2022-10-30T02:02:51.658Z,10.20
2022-10-30T02:05:31.542Z,5.90
2022-10-30T02:08:00.730Z,9.90
2022-10-30T02:10:31.117Z,11.88
2022-10-30T02:13:00.639Z,7.43
2022-10-30T02:15:29.203Z,17.30
2022-10-30T02:17:59.440Z,7.10
2022-10-30T02:20:30.001Z,15.57
2022-10-30T02:23:00.558Z,7.90
2022-10-30T02:25:34.915Z,9.35
2022-10-30T02:28:03.594Z,10.45
2022-10-30T02:30:33.120Z,9.00
2022-10-30T02:33:03.717Z,6.80
2022-10-30T02:35:35.447Z,9.00
2022-10-30T02:38:04.790Z,12.27
2022-10-30T02:40:33.470Z,8.00
2022-10-30T02:43:01.983Z,8.40
2022-10-30T02:45:32.172Z,24.42
2022-10-30T02:48:01.421Z,10.35
2022-10-30T02:50:30.849Z,11.75
2022-10-30T02:53:01.620Z,19.45
2022-10-30T02:55:30.372Z,15.30
2022-10-30T02:57:58.842Z,14.70
2022-10-30T03:00:27.409Z,14.95
2022-10-30T03:02:57.414Z,11.55
2022-10-30T03:05:26.632Z,11.00
2022-10-30T03:07:56.703Z,9.35
2022-10-30T03:10:26.885Z,14.18
2022-10-30T03:12:55.330Z,8.05
2022-10-30T03:15:23.796Z,8.50
2022-10-30T03:17:52.993Z,8.63
2022-10-30T03:20:21.677Z,16.95
2022-10-30T03:22:50.290Z,11.65
2022-10-30T03:25:23.929Z,16.77
2022-10-30T03:27:57.817Z,10.90
2022-10-30T03:30:27.117Z,13.68
2022-10-30T03:32:56.106Z,8.93
2022-10-30T03:35:25.046Z,10.98
2022-10-30T03:37:53.992Z,10.07
2022-10-30T03:40:22.574Z,13.55
2022-10-30T03:42:51.963Z,15.65
2022-10-30T03:45:21.875Z,11.02
2022-10-30T03:47:50.350Z,12.10
2022-10-30T03:50:18.776Z,12.75
2022-10-30T03:52:47.529Z,12.95
2022-10-30T03:55:16.440Z,25.65
2022-10-30T03:57:44.906Z,14.43
2022-10-30T04:00:19.426Z,13.90
2022-10-30T04:02:59.338Z,11.55
2022-10-30T04:05:30.208Z,12.10
2022-10-30T04:08:00.053Z,6.88
2022-10-30T04:10:30.624Z,15.57
2022-10-30T04:13:03.593Z,6.28
2022-10-30T04:15:33.157Z,10.15
2022-10-30T04:18:03.175Z,12.43
2022-10-30T04:20:32.524Z,14.15
2022-10-30T04:23:03.032Z,7.97
2022-10-30T04:25:32.980Z,8.30
2022-10-30T04:28:02.211Z,9.80
2022-10-30T04:30:34.212Z,9.43
2022-10-30T04:33:06.129Z,9.73
2022-10-30T04:35:37.832Z,10.55
2022-10-30T04:38:12.296Z,20.38
2022-10-30T04:40:43.171Z,15.68
2022-10-30T04:43:13.983Z,16.90
2022-10-30T04:45:43.779Z,17.52
2022-10-30T04:48:16.335Z,11.77
2022-10-30T04:50:46.041Z,10.32
2022-10-30T04:53:21.451Z,14.32
2022-10-30T04:55:55.858Z,15.88
2022-10-30T04:58:24.519Z,15.05
2022-10-30T05:04:12.646Z,28.23
2022-10-30T05:06:42.719Z,16.25
2022-10-30T05:09:11.143Z,11.93
2022-10-30T05:11:41.485Z,21.58
2022-10-30T05:14:10.061Z,13.05
2022-10-30T05:16:39.533Z,16.42
2022-10-30T05:19:09.254Z,11.13
2022-10-30T05:21:39.300Z,12.40
2022-10-30T05:24:08.960Z,9.75
2022-10-30T05:26:43.641Z,11.57
2022-10-30T05:29:13.646Z,11.82
2022-10-30T05:31:42.219Z,10.43
2022-10-30T05:34:46.127Z,10.95
2022-10-30T05:37:18.683Z,12.68
2022-10-30T05:39:47.452Z,14.75
2022-10-30T05:42:27.549Z,14.63
2022-10-30T05:45:01.365Z,14.50
2022-10-30T05:47:35.305Z,11.30
2022-10-30T05:50:04.058Z,25.48
2022-10-30T05:52:34.037Z,19.88
2022-10-30T05:55:04.446Z,20.45
2022-10-30T05:57:42.626Z,21.25
2022-10-30T06:00:12.268Z,18.15
2022-10-30T06:02:46.651Z,24.00
2022-10-30T06:05:17.602Z,20.58
2022-10-30T06:07:47.472Z,26.40
2022-10-30T06:10:16.142Z,27.52
2022-10-30T06:13:00.473Z,17.27
2022-10-30T06:15:38.701Z,30.35
2022-10-30T06:18:07.274Z,18.13
2022-10-30T06:20:56.685Z,20.38
2022-10-30T06:23:26.625Z,25.65
2022-10-30T06:26:18.469Z,17.98
2022-10-30T06:28:52.184Z,14.70
2022-10-30T06:33:54.281Z,17.23
2022-10-30T06:36:23.932Z,11.13
2022-10-30T06:38:53.854Z,14.68
2022-10-30T06:41:29.049Z,13.60
2022-10-30T06:44:16.942Z,16.10
2022-10-30T06:46:45.416Z,22.27
2022-10-30T06:49:14.330Z,20.38
2022-10-30T06:51:43.707Z,23.42
2022-10-30T06:54:14.420Z,21.67
2022-10-30T06:56:42.891Z,18.42
2022-10-30T06:59:35.464Z,16.50
2022-10-30T07:02:30.201Z,21.60
2022-10-30T07:05:05.023Z,18.23
2022-10-30T07:07:33.659Z,20.23
2022-10-30T07:10:03.688Z,13.38
2022-10-30T07:12:59.039Z,22.83
2022-10-30T07:15:51.188Z,13.05
2022-10-30T07:18:35.752Z,12.10
2022-10-30T07:21:04.311Z,15.63
2022-10-30T07:23:33.485Z,10.55
2022-10-30T07:26:26.314Z,10.48
2022-10-30T07:28:56.626Z,11.05
2022-10-30T07:31:41.793Z,8.25
2022-10-30T07:34:29.470Z,10.48
2022-10-30T07:37:21.868Z,8.73
2022-10-30T07:39:59.517Z,8.77
2022-10-30T07:42:47.045Z,12.07
2022-10-30T07:45:34.769Z,13.32
2022-10-30T07:48:22.109Z,11.52
2022-10-30T07:51:08.668Z,9.63
2022-10-30T07:53:37.146Z,13.32
2022-10-30T07:56:06.929Z,10.13
2022-10-30T07:58:57.216Z,18.38
2022-10-30T08:01:34.378Z,11.85
2022-10-30T08:04:26.449Z,9.10
2022-10-30T08:07:00.354Z,9.70
2022-10-30T08:09:28.925Z,12.20
2022-10-30T08:11:57.374Z,14.18
2022-10-30T08:14:27.699Z,9.27
2022-10-30T08:17:07.127Z,9.38
2022-10-30T08:19:35.664Z,9.38
2022-10-30T08:22:07.207Z,8.88
2022-10-30T08:24:41.981Z,10.57
2022-10-30T08:27:11.900Z,10.27
2022-10-30T08:29:42.532Z,12.00
2022-10-30T08:32:11.004Z,9.75
2022-10-30T08:35:02.590Z,9.68
2022-10-30T08:37:31.884Z,12.48
2022-10-30T08:40:00.485Z,9.25
2022-10-30T08:42:52.443Z,16.13
2022-10-30T08:45:28.112Z,12.40
2022-10-30T08:48:06.791Z,11.43
2022-10-30T08:50:39.884Z,10.10
2022-10-30T08:53:13.105Z,8.52
2022-10-30T08:55:42.178Z,8.63
2022-10-30T08:58:22.978Z,12.77
2022-10-30T09:00:57.209Z,9.23
2022-10-30T09:03:47.992Z,9.07
2022-10-30T09:06:45.831Z,10.80
2022-10-30T09:09:37.629Z,8.95
2022-10-30T09:12:07.489Z,9.30
2022-10-30T09:14:42.508Z,12.50
2022-10-30T09:17:13.926Z,8.38
2022-10-30T09:19:46.171Z,12.88
2022-10-30T09:22:34.280Z,8.75
2022-10-30T09:25:11.222Z,11.45
2022-10-30T09:27:49.324Z,14.07
2022-10-30T09:30:19.250Z,13.75
2022-10-30T09:32:59.014Z,12.23
2022-10-30T09:35:48.250Z,11.75
2022-10-30T09:38:16.917Z,14.32
2022-10-30T09:41:03.572Z,14.48
2022-10-30T09:43:40.456Z,15.68
2022-10-30T09:46:21.235Z,10.23
2022-10-30T09:49:06.883Z,9.55
2022-10-30T09:51:57.806Z,8.15
2022-10-30T09:54:38.269Z,9.40
2022-10-30T09:57:19.989Z,13.35
2022-10-30T10:00:02.735Z,10.18
2022-10-30T10:02:37.843Z,6.60
2022-10-30T10:05:18.310Z,9.65
2022-10-30T10:08:11.416Z,6.63
2022-10-30T10:11:02.612Z,11.25
2022-10-30T10:13:38.571Z,9.20
2022-10-30T10:16:15.423Z,7.25
2022-10-30T10:18:47.434Z,9.02
2022-10-30T10:21:24.849Z,9.82
2022-10-30T10:23:56.003Z,9.82
2022-10-30T10:26:37.409Z,8.73
2022-10-30T10:29:29.520Z,11.05
2022-10-30T10:32:14.496Z,6.93
2022-10-30T10:35:09.752Z,7.90
2022-10-30T10:37:47.856Z,6.20
2022-10-30T10:40:42.172Z,10.25
2022-10-30T10:43:22.990Z,6.20
2022-10-30T10:45:59.339Z,7.72
2022-10-30T10:48:47.274Z,9.40
2022-10-30T10:51:19.250Z,7.03
2022-10-30T10:53:55.064Z,7.78
2022-10-30T10:56:28.668Z,6.10
2022-10-30T10:59:00.972Z,9.85
2022-10-30T11:01:38.116Z,8.30
2022-10-30T11:04:11.497Z,10.95
2022-10-30T11:06:42.789Z,9.18
2022-10-30T11:09:19.643Z,8.02
2022-10-30T11:11:48.562Z,11.05
2022-10-30T11:14:20.131Z,9.38
2022-10-30T11:17:06.796Z,11.20
2022-10-30T11:19:35.422Z,10.73
2022-10-30T11:22:09.694Z,10.95
2022-10-30T11:24:39.516Z,12.57
2022-10-30T11:27:19.362Z,9.82
2022-10-30T11:29:54.844Z,11.40
2022-10-30T11:32:27.300Z,9.60
2022-10-30T11:35:03.497Z,12.68
2022-10-30T11:37:33.450Z,9.40
2022-10-30T11:40:17.469Z,8.98
2022-10-30T11:42:48.805Z,10.15
2022-10-30T11:45:20.640Z,9.07
2022-10-30T11:47:49.319Z,14.00
2022-10-30T11:50:21.188Z,11.55
2022-10-30T11:52:52.339Z,6.38
2022-10-30T11:55:28.196Z,7.10
2022-10-30T11:57:58.574Z,8.30
2022-10-30T12:00:29.537Z,9.63
2022-10-30T12:03:00.988Z,5.95
2022-10-30T12:05:43.571Z,5.68
2022-10-30T12:08:22.706Z,5.57
2022-10-30T12:11:04.739Z,5.45
2022-10-30T12:13:38.935Z,6.75
2022-10-30T12:16:11.079Z,5.53
2022-10-30T12:18:40.864Z,7.78
2022-10-30T12:21:09.391Z,4.70
2022-10-30T12:23:39.527Z,10.50
2022-10-30T12:26:14.105Z,5.95
2022-10-30T12:28:52.973Z,4.95
2022-10-30T12:31:27.391Z,5.80
2022-10-30T12:36:49.885Z,5.65
2022-10-30T12:39:23.974Z,6.28
2022-10-30T12:42:01.660Z,5.07
2022-10-30T12:44:35.468Z,5.55
2022-10-30T12:47:08.835Z,4.78
2022-10-30T12:49:42.686Z,6.40
2022-10-30T12:52:17.196Z,4.43
2022-10-30T12:54:52.219Z,1.55
2022-10-30T12:57:27.250Z,3.55
2022-10-30T13:00:02.943Z,6.47
2022-10-30T13:02:45.511Z,4.45
2022-10-30T13:05:27.835Z,2.40
2022-10-30T13:08:06.064Z,2.15
2022-10-30T13:10:41.660Z,4.47
2022-10-30T13:13:16.440Z,3.40
2022-10-30T13:38:35.985Z,4.32
2022-10-30T13:41:16.867Z,3.15
2022-10-30T13:43:54.713Z,3.40
2022-10-30T13:46:34.742Z,2.47
2022-10-30T13:49:16.596Z,2.40
2022-10-30T13:51:47.127Z,3.10
2022-10-30T13:54:21.956Z,2.75
2022-10-30T13:56:51.907Z,1.45
2022-10-30T13:59:42.861Z,5.00
2022-10-30T14:02:23.650Z,3.42
2022-10-30T14:04:58.878Z,3.92
2022-10-30T14:07:34.798Z,1.75
2022-10-30T14:10:09.904Z,0.77
2022-10-30T14:12:52.433Z,1.73
2022-10-30T14:15:28.560Z,1.38
2022-10-30T14:18:44.771Z,1.38
2022-10-30T14:21:37.809Z,2.17
2022-10-30T14:24:22.652Z,3.28
2022-10-30T14:27:09.735Z,2.00
2022-10-30T14:29:53.050Z,2.13
2022-10-30T14:32:40.712Z,7.38
2022-10-30T14:35:33.290Z,2.90
2022-10-30T14:38:36.605Z,2.10
2022-10-30T14:41:37.819Z,3.40
2022-10-30T14:44:29.433Z,1.95
2022-10-30T14:47:32.129Z,3.05
2022-10-30T14:50:11.936Z,9.60
2022-10-30T14:52:48.104Z,5.32
2022-10-30T14:55:26.956Z,5.93
2022-10-30T14:58:15.273Z,3.42
2022-10-30T15:00:45.723Z,7.38
2022-10-30T15:03:25.438Z,6.25
2022-10-30T15:05:57.416Z,2.17
2022-10-30T15:08:43.749Z,4.68
2022-10-30T15:11:38.669Z,4.10
2022-10-30T15:14:20.976Z,8.90
2022-10-30T15:16:52.794Z,8.00
2022-10-30T15:19:24.256Z,6.22
2022-10-30T15:21:55.037Z,1.40
2022-10-30T15:24:31.246Z,9.80
2022-10-30T15:27:02.032Z,4.72
2022-10-30T15:29:33.473Z,7.35
2022-10-30T15:32:05.669Z,5.88
2022-10-30T15:34:34.501Z,7.00
2022-10-30T15:37:12.202Z,7.32
2022-10-30T15:39:40.624Z,3.83
2022-10-30T15:42:11.874Z,9.30
2022-10-30T15:44:43.741Z,8.15
2022-10-30T15:47:16.988Z,6.20
2022-10-30T15:49:50.057Z,5.68
2022-10-30T15:52:23.069Z,5.00
2022-10-30T15:54:59.090Z,6.22
2022-10-30T15:57:56.887Z,6.05
2022-10-30T16:00:24.495Z,4.80
2022-10-30T16:03:06.838Z,4.30
2022-10-30T16:05:36.449Z,9.18
2022-10-30T16:08:13.236Z,4.57
2022-10-30T16:10:44.343Z,5.50
2022-10-30T16:13:32.760Z,5.47
2022-10-30T16:16:02.611Z,6.45
2022-10-30T16:18:36.086Z,6.63
2022-10-30T16:21:08.416Z,5.80
2022-10-30T16:23:42.663Z,4.10
2022-10-30T16:26:25.990Z,3.53
2022-10-30T16:28:54.892Z,4.05
2022-10-30T16:31:24.894Z,4.32
2022-10-30T16:33:55.028Z,4.95
2022-10-30T16:36:23.644Z,9.07
2022-10-30T16:38:52.733Z,5.85
2022-10-30T16:41:26.715Z,8.73
2022-10-30T16:44:20.550Z,6.45
2022-10-30T16:46:52.604Z,6.13
2022-10-30T16:49:25.020Z,7.90
2022-10-30T16:51:58.511Z,5.30
2022-10-30T16:54:30.561Z,5.93
2022-10-30T16:57:02.211Z,8.57
2022-10-30T16:59:35.130Z,5.18
2022-10-30T17:02:08.273Z,4.60
2022-10-30T17:04:38.281Z,5.82
2022-10-30T17:07:17.723Z,4.88
2022-10-30T17:09:48.592Z,5.65
2022-10-30T17:12:20.910Z,7.18
2022-10-30T17:14:52.455Z,4.38
2022-10-30T17:17:39.508Z,9.15
2022-10-30T17:20:28.248Z,7.20
2022-10-30T17:23:08.644Z,9.98
2022-10-30T17:25:38.869Z,5.68
2022-10-30T17:28:07.822Z,8.48
2022-10-30T17:30:39.801Z,7.18
2022-10-30T17:33:34.348Z,8.30
2022-10-30T17:36:05.286Z,7.30
2022-10-30T17:38:34.131Z,10.82
2022-10-30T17:41:03.718Z,10.07
2022-10-30T17:43:35.224Z,6.82
2022-10-30T17:46:04.000Z,11.40
2022-10-30T17:48:32.962Z,10.80
2022-10-30T17:51:01.661Z,16.15
2022-10-30T17:53:34.993Z,12.75
2022-10-30T17:56:06.642Z,11.27
2022-10-30T17:58:35.293Z,15.40
2022-10-30T18:01:04.548Z,14.70
2022-10-30T18:03:33.180Z,14.15
2022-10-30T18:06:03.329Z,17.05
2022-10-30T18:08:33.949Z,15.40
2022-10-30T18:11:02.397Z,14.20
2022-10-30T18:13:30.833Z,23.73
2022-10-30T18:15:59.905Z,16.15
2022-10-30T18:18:28.618Z,13.35
2022-10-30T18:20:57.050Z,14.95
2022-10-30T18:26:19.561Z,17.95
2022-10-30T18:28:48.225Z,19.85
2022-10-30T18:31:19.065Z,15.38
2022-10-30T18:33:48.260Z,16.95
2022-10-30T18:36:18.666Z,11.77
2022-10-30T18:38:47.331Z,11.55
2022-10-30T18:41:20.339Z,19.77
2022-10-30T18:43:48.841Z,10.20
2022-10-30T18:46:17.948Z,13.07
2022-10-30T18:48:47.183Z,11.18
2022-10-30T18:51:22.037Z,14.65
2022-10-30T18:53:52.766Z,22.38
2022-10-30T18:56:24.686Z,12.07
2022-10-30T18:58:56.819Z,17.27
2022-10-30T19:01:30.948Z,16.83
2022-10-30T19:04:01.215Z,17.65
2022-10-30T19:06:30.013Z,13.85
2022-10-30T19:08:58.453Z,11.07
2022-10-30T19:11:30.804Z,14.85
2022-10-30T19:14:00.318Z,14.85
2022-10-30T19:16:29.988Z,17.25
2022-10-30T19:18:58.406Z,12.82
2022-10-30T19:21:28.142Z,16.90
2022-10-30T19:23:56.690Z,12.77
2022-10-30T19:26:25.092Z,15.35
2022-10-30T19:28:54.922Z,10.30
2022-10-30T19:31:23.364Z,12.15
2022-10-30T19:33:54.561Z,15.43
2022-10-30T19:36:31.124Z,14.93
2022-10-30T19:39:05.766Z,14.40
2022-10-30T19:41:37.527Z,13.30
2022-10-30T19:44:07.961Z,11.43
2022-10-30T19:46:37.408Z,13.57
2022-10-30T19:49:16.338Z,18.63
2022-10-30T19:51:44.770Z,14.50
2022-10-30T19:54:13.415Z,21.48
2022-10-30T19:56:43.570Z,12.73
2022-10-30T19:59:16.161Z,15.13
2022-10-30T20:01:45.139Z,14.82
2022-10-30T20:04:14.314Z,15.40
2022-10-30T20:06:42.883Z,13.80
2022-10-30T20:09:12.315Z,16.88
2022-10-30T20:11:41.407Z,18.15
2022-10-30T20:14:10.921Z,19.73
2022-10-30T20:16:40.856Z,19.92
2022-10-30T20:19:27.988Z,19.23
2022-10-30T20:21:56.732Z,13.75
2022-10-30T20:24:25.173Z,20.15
2022-10-30T20:26:56.578Z,19.25
2022-10-30T20:29:26.109Z,23.45
2022-10-30T20:31:56.248Z,23.70
2022-10-30T20:34:25.505Z,21.85
2022-10-30T20:36:55.067Z,20.38
2022-10-30T20:39:23.545Z,28.02
2022-10-30T20:41:51.957Z,21.58
2022-10-30T20:44:20.409Z,21.92
2022-10-30T20:46:49.665Z,18.52
2022-10-30T20:49:23.387Z,20.38
2022-10-30T20:51:51.914Z,21.15
2022-10-30T20:54:22.244Z,22.63
2022-10-30T20:56:52.088Z,23.92
2022-10-30T20:59:20.804Z,32.53
2022-10-30T21:01:49.538Z,21.58
2022-10-30T21:04:19.616Z,18.10
2022-10-30T21:06:48.445Z,22.33
2022-10-30T21:09:17.669Z,17.63
2022-10-30T21:11:46.083Z,21.70
2022-10-30T21:14:14.507Z,14.32
2022-10-30T21:16:42.943Z,10.77
2022-10-30T21:19:11.327Z,10.07
2022-10-30T21:21:41.148Z,20.95
2022-10-30T21:24:10.126Z,14.60
2022-10-30T21:26:38.955Z,11.82
2022-10-30T21:29:07.484Z,18.20
2022-10-30T21:31:35.948Z,12.82
2022-10-30T21:34:04.531Z,10.20
2022-10-30T21:36:33.957Z,17.27
2022-10-30T21:39:04.592Z,9.93
2022-10-30T21:41:33.779Z,15.02
2022-10-30T21:44:02.382Z,11.88
2022-10-30T21:46:32.675Z,15.10
2022-10-30T21:49:07.142Z,16.63
2022-10-30T21:51:35.750Z,16.00
2022-10-30T21:54:05.628Z,15.80
2022-10-30T21:56:35.316Z,16.98
2022-10-30T21:59:05.010Z,16.60
2022-10-30T22:01:36.027Z,23.10
2022-10-30T22:04:06.902Z,17.52
2022-10-30T22:06:39.256Z,14.77
2022-10-30T22:09:09.414Z,17.67
2022-10-30T22:11:38.716Z,15.20
2022-10-30T22:14:08.021Z,17.88
2022-10-30T22:16:38.307Z,17.50
2022-10-30T22:19:07.906Z,11.85
2022-10-30T22:21:36.495Z,17.45
2022-10-30T22:24:05.946Z,20.05
2022-10-30T22:26:35.859Z,19.95
2022-10-30T22:29:04.511Z,16.92
2022-10-30T22:31:33.310Z,18.90
2022-10-30T22:34:02.534Z,23.13
2022-10-30T22:36:32.641Z,20.10
2022-10-30T22:39:02.914Z,15.90
2022-10-30T22:41:36.460Z,16.30
2022-10-30T22:44:09.135Z,15.15
2022-10-30T22:46:38.392Z,18.08
2022-10-30T22:49:07.800Z,16.27
2022-10-30T22:51:38.004Z,19.95
2022-10-30T22:54:08.334Z,15.35
2022-10-30T22:56:38.602Z,16.85
2022-10-30T22:59:11.458Z,18.73
2022-10-30T23:01:41.379Z,16.77
2022-10-30T23:04:14.146Z,15.82
2022-10-30T23:06:43.442Z,17.08
2022-10-30T23:09:17.304Z,19.13
2022-10-30T23:11:46.107Z,14.80
2022-10-30T23:14:16.591Z,19.10
2022-10-30T23:16:45.015Z,14.95
2022-10-30T23:19:13.423Z,18.25
2022-10-30T23:21:41.857Z,17.05
2022-10-30T23:24:10.424Z,17.20
2022-10-30T23:26:38.930Z,18.48
2022-10-30T23:29:07.375Z,15.27
2022-10-30T23:31:39.348Z,17.38
2022-10-30T23:34:10.402Z,13.10
2022-10-30T23:36:38.974Z,20.17
2022-10-30T23:39:09.305Z,19.15
2022-10-30T23:41:37.898Z,18.88
2022-10-30T23:44:08.261Z,13.50
2022-10-30T23:46:38.670Z,19.58
2022-10-30T23:49:07.602Z,12.75
2022-10-30T23:51:36.061Z,15.65
2022-10-30T23:54:05.008Z,12.90
2022-10-30T23:56:33.651Z,16.15
2022-10-30T23:59:02.594Z,12.02
